sensor_id;sensor_type;location;lat;lon;timestamp;pressure;altitude;pressure_sealevel;temperature;humidity
56176;BME280;63065;51.082;17.016;2023-04-10T00:00:42;101258.79;;;12.48;44.28
56176;BME280;63065;51.082;17.016;2023-04-10T00:03:07;101258.10;;;12.46;44.26
56176;BME280;63065;51.082;17.016;2023-04-10T00:05:32;101254.31;;;12.16;44.03
56176;BME280;63065;51.082;17.016;2023-04-10T00:07:57;101250.06;;;12.31;44.00
56176;BME280;63065;51.082;17.016;2023-04-10T00:10:22;101244.72;;;11.98;44.13
56176;BME280;63065;51.082;17.016;2023-04-10T00:12:47;101240.45;;;12.11;44.37
56176;BME280;63065;51.082;17.016;2023-04-10T00:15:13;101236.56;;;12.09;43.76
56176;BME280;63065;51.082;17.016;2023-04-10T00:17:38;101229.92;;;12.09;44.25
56176;BME280;63065;51.082;17.016;2023-04-10T00:20:05;101231.11;;;12.04;44.60
56176;BME280;63065;51.082;17.016;2023-04-10T00:22:29;101229.66;;;11.98;44.09
56176;BME280;63065;51.082;17.016;2023-04-10T00:24:55;101227.89;;;11.92;43.79
56176;BME280;63065;51.082;17.016;2023-04-10T00:27:20;101228.96;;;11.87;44.21
56176;BME280;63065;51.082;17.016;2023-04-10T00:29:45;101228.93;;;11.85;43.89
56176;BME280;63065;51.082;17.016;2023-04-10T00:32:10;101230.26;;;11.76;43.81
56176;BME280;63065;51.082;17.016;2023-04-10T00:34:35;101231.96;;;11.70;44.07
56176;BME280;63065;51.082;17.016;2023-04-10T00:37:00;101232.44;;;11.67;44.49
56176;BME280;63065;51.082;17.016;2023-04-10T00:39:26;101229.45;;;11.65;44.03
56176;BME280;63065;51.082;17.016;2023-04-10T00:41:51;101228.02;;;11.63;43.78
56176;BME280;63065;51.082;17.016;2023-04-10T00:44:17;101225.52;;;11.58;43.90
56176;BME280;63065;51.082;17.016;2023-04-10T00:46:42;101225.68;;;11.54;44.04
56176;BME280;63065;51.082;17.016;2023-04-10T00:49:07;101224.82;;;11.51;44.18
56176;BME280;63065;51.082;17.016;2023-04-10T00:51:33;101223.74;;;11.47;44.26
56176;BME280;63065;51.082;17.016;2023-04-10T00:53:59;101224.09;;;11.49;44.37
56176;BME280;63065;51.082;17.016;2023-04-10T00:56:24;101226.16;;;11.55;44.24
56176;BME280;63065;51.082;17.016;2023-04-10T00:58:49;101230.20;;;11.50;44.10
56176;BME280;63065;51.082;17.016;2023-04-10T01:01:15;101231.69;;;11.44;44.20
56176;BME280;63065;51.082;17.016;2023-04-10T01:03:41;101232.05;;;11.44;44.05
56176;BME280;63065;51.082;17.016;2023-04-10T01:06:14;101235.36;;;11.63;43.87
56176;BME280;63065;51.082;17.016;2023-04-10T01:08:38;101232.88;;;11.35;44.07
56176;BME280;63065;51.082;17.016;2023-04-10T01:11:04;101233.61;;;11.33;44.10
56176;BME280;63065;51.082;17.016;2023-04-10T01:13:29;101233.26;;;11.33;43.71
56176;BME280;63065;51.082;17.016;2023-04-10T01:15:53;101230.91;;;11.52;43.54
56176;BME280;63065;51.082;17.016;2023-04-10T01:18:18;101229.26;;;11.15;43.64
56176;BME280;63065;51.082;17.016;2023-04-10T01:20:38;101231.23;;;11.61;43.86
56176;BME280;63065;51.082;17.016;2023-04-10T01:25:39;101232.68;;;11.01;43.75
56176;BME280;63065;51.082;17.016;2023-04-10T01:28:06;101233.70;;;11.22;43.67
56176;BME280;63065;51.082;17.016;2023-04-10T01:30:22;101232.50;;;11.20;43.97
56176;BME280;63065;51.082;17.016;2023-04-10T01:32:46;101233.00;;;10.87;44.34
56176;BME280;63065;51.082;17.016;2023-04-10T01:35:14;101231.76;;;11.40;44.12
56176;BME280;63065;51.082;17.016;2023-04-10T01:37:40;101230.23;;;11.36;44.07
56176;BME280;63065;51.082;17.016;2023-04-10T01:40:07;101228.27;;;11.30;43.88
56176;BME280;63065;51.082;17.016;2023-04-10T01:42:33;101228.10;;;10.75;43.72
56176;BME280;63065;51.082;17.016;2023-04-10T01:44:55;101226.48;;;10.68;43.35
56176;BME280;63065;51.082;17.016;2023-04-10T01:47:21;101225.24;;;11.14;43.85
56176;BME280;63065;51.082;17.016;2023-04-10T01:49:46;101226.98;;;11.10;44.38
56176;BME280;63065;51.082;17.016;2023-04-10T01:52:11;101228.76;;;11.13;44.56
56176;BME280;63065;51.082;17.016;2023-04-10T01:54:37;101232.98;;;11.24;44.38
56176;BME280;63065;51.082;17.016;2023-04-10T01:57:03;101233.12;;;11.02;43.68
56176;BME280;63065;51.082;17.016;2023-04-10T01:59:28;101234.32;;;11.21;44.16
56176;BME280;63065;51.082;17.016;2023-04-10T02:01:55;101235.33;;;10.75;44.11
56176;BME280;63065;51.082;17.016;2023-04-10T02:04:19;101234.71;;;11.24;44.22
56176;BME280;63065;51.082;17.016;2023-04-10T02:06:50;101236.68;;;11.23;44.31
56176;BME280;63065;51.082;17.016;2023-04-10T02:09:16;101236.83;;;11.22;44.26
56176;BME280;63065;51.082;17.016;2023-04-10T02:11:40;101236.26;;;10.74;44.16
56176;BME280;63065;51.082;17.016;2023-04-10T02:14:04;101232.69;;;11.17;44.23
56176;BME280;63065;51.082;17.016;2023-04-10T02:16:28;101232.50;;;11.13;43.95
56176;BME280;63065;51.082;17.016;2023-04-10T02:18:52;101236.05;;;11.12;44.06
56176;BME280;63065;51.082;17.016;2023-04-10T02:21:17;101236.11;;;11.14;44.11
56176;BME280;63065;51.082;17.016;2023-04-10T02:23:42;101237.72;;;11.13;44.25
56176;BME280;63065;51.082;17.016;2023-04-10T02:26:09;101236.89;;;11.06;44.41
56176;BME280;63065;51.082;17.016;2023-04-10T02:28:37;101238.56;;;11.04;44.19
56176;BME280;63065;51.082;17.016;2023-04-10T02:30:59;101237.70;;;10.97;44.36
56176;BME280;63065;51.082;17.016;2023-04-10T02:33:25;101238.63;;;10.89;44.05
56176;BME280;63065;51.082;17.016;2023-04-10T02:35:50;101240.64;;;10.56;43.91
56176;BME280;63065;51.082;17.016;2023-04-10T02:38:15;101244.06;;;10.80;44.12
56176;BME280;63065;51.082;17.016;2023-04-10T02:40:41;101242.82;;;10.95;44.68
56176;BME280;63065;51.082;17.016;2023-04-10T02:43:06;101240.62;;;10.74;44.78
56176;BME280;63065;51.082;17.016;2023-04-10T02:45:32;101239.82;;;10.74;44.35
56176;BME280;63065;51.082;17.016;2023-04-10T02:47:57;101240.83;;;10.69;44.28
56176;BME280;63065;51.082;17.016;2023-04-10T02:50:22;101241.80;;;10.74;43.97
56176;BME280;63065;51.082;17.016;2023-04-10T02:52:47;101238.91;;;10.73;44.47
56176;BME280;63065;51.082;17.016;2023-04-10T02:55:13;101239.97;;;10.81;44.59
56176;BME280;63065;51.082;17.016;2023-04-10T02:57:39;101238.56;;;10.74;44.60
56176;BME280;63065;51.082;17.016;2023-04-10T03:00:05;101233.92;;;10.72;44.72
56176;BME280;63065;51.082;17.016;2023-04-10T03:02:29;101234.84;;;10.62;44.16
56176;BME280;63065;51.082;17.016;2023-04-10T03:04:54;101231.27;;;10.51;43.90
56176;BME280;63065;51.082;17.016;2023-04-10T03:07:20;101236.37;;;10.44;44.19
56176;BME280;63065;51.082;17.016;2023-04-10T03:09:45;101237.60;;;10.49;44.70
56176;BME280;63065;51.082;17.016;2023-04-10T03:12:10;101237.38;;;10.40;44.55
56176;BME280;63065;51.082;17.016;2023-04-10T03:14:36;101238.33;;;10.35;44.55
56176;BME280;63065;51.082;17.016;2023-04-10T03:17:02;101242.17;;;10.56;44.31
56176;BME280;63065;51.082;17.016;2023-04-10T03:19:27;101244.61;;;10.58;43.99
56176;BME280;63065;51.082;17.016;2023-04-10T03:21:52;101245.53;;;10.50;44.36
56176;BME280;63065;51.082;17.016;2023-04-10T03:24:18;101242.33;;;10.21;44.39
56176;BME280;63065;51.082;17.016;2023-04-10T03:26:43;101240.87;;;10.25;44.33
56176;BME280;63065;51.082;17.016;2023-04-10T03:29:09;101239.71;;;10.24;44.42
56176;BME280;63065;51.082;17.016;2023-04-10T03:31:34;101240.54;;;10.30;44.48
56176;BME280;63065;51.082;17.016;2023-04-10T03:34:00;101239.89;;;10.28;44.46
56176;BME280;63065;51.082;17.016;2023-04-10T03:36:26;101239.98;;;10.43;44.71
56176;BME280;63065;51.082;17.016;2023-04-10T03:38:51;101239.40;;;10.48;44.55
56176;BME280;63065;51.082;17.016;2023-04-10T03:41:16;101241.08;;;10.34;44.65
56176;BME280;63065;51.082;17.016;2023-04-10T03:43:41;101238.41;;;10.50;44.60
56176;BME280;63065;51.082;17.016;2023-04-10T03:46:07;101236.97;;;10.62;44.25
56176;BME280;63065;51.082;17.016;2023-04-10T03:48:32;101236.98;;;10.57;44.14
56176;BME280;63065;51.082;17.016;2023-04-10T03:50:58;101239.30;;;10.79;44.44
56176;BME280;63065;51.082;17.016;2023-04-10T03:53:24;101243.16;;;10.60;44.51
56176;BME280;63065;51.082;17.016;2023-04-10T03:55:49;101242.92;;;10.63;44.70
56176;BME280;63065;51.082;17.016;2023-04-10T03:58:14;101241.06;;;10.68;44.54
56176;BME280;63065;51.082;17.016;2023-04-10T04:00:39;101240.48;;;10.72;44.44
56176;BME280;63065;51.082;17.016;2023-04-10T04:03:05;101238.90;;;10.70;44.34
56176;BME280;63065;51.082;17.016;2023-04-10T04:05:30;101239.08;;;10.69;44.21
56176;BME280;63065;51.082;17.016;2023-04-10T04:07:56;101239.22;;;10.85;44.24
56176;BME280;63065;51.082;17.016;2023-04-10T04:10:21;101244.77;;;10.82;44.01
56176;BME280;63065;51.082;17.016;2023-04-10T04:12:46;101250.07;;;10.84;44.29
56176;BME280;63065;51.082;17.016;2023-04-10T04:15:12;101250.44;;;10.88;44.67
56176;BME280;63065;51.082;17.016;2023-04-10T04:17:37;101252.87;;;10.80;44.49
56176;BME280;63065;51.082;17.016;2023-04-10T04:20:03;101256.60;;;10.81;44.60
56176;BME280;63065;51.082;17.016;2023-04-10T04:22:28;101257.71;;;10.63;44.15
56176;BME280;63065;51.082;17.016;2023-04-10T04:24:54;101260.59;;;10.91;44.32
56176;BME280;63065;51.082;17.016;2023-04-10T04:27:19;101260.49;;;10.95;44.49
56176;BME280;63065;51.082;17.016;2023-04-10T04:29:44;101258.14;;;11.01;44.49
56176;BME280;63065;51.082;17.016;2023-04-10T04:32:10;101259.72;;;11.02;44.70
56176;BME280;63065;51.082;17.016;2023-04-10T04:34:35;101255.51;;;11.09;44.59
56176;BME280;63065;51.082;17.016;2023-04-10T04:37:00;101260.30;;;11.22;44.38
56176;BME280;63065;51.082;17.016;2023-04-10T04:39:26;101260.39;;;11.23;44.36
56176;BME280;63065;51.082;17.016;2023-04-10T04:41:51;101259.86;;;11.28;44.58
56176;BME280;63065;51.082;17.016;2023-04-10T04:44:17;101259.00;;;11.05;44.39
56176;BME280;63065;51.082;17.016;2023-04-10T04:46:42;101256.68;;;11.32;44.43
56176;BME280;63065;51.082;17.016;2023-04-10T04:49:07;101252.88;;;10.96;44.47
56176;BME280;63065;51.082;17.016;2023-04-10T04:51:33;101255.24;;;11.02;44.41
56176;BME280;63065;51.082;17.016;2023-04-10T04:53:59;101261.04;;;11.10;44.35
56176;BME280;63065;51.082;17.016;2023-04-10T04:56:24;101267.20;;;11.62;44.20
56176;BME280;63065;51.082;17.016;2023-04-10T04:58:50;101270.98;;;11.23;44.13
56176;BME280;63065;51.082;17.016;2023-04-10T05:01:16;101274.08;;;11.29;44.19
56176;BME280;63065;51.082;17.016;2023-04-10T05:03:40;101271.38;;;11.39;44.06
56176;BME280;63065;51.082;17.016;2023-04-10T05:06:06;101272.46;;;11.41;44.13
56176;BME280;63065;51.082;17.016;2023-04-10T05:08:31;101270.07;;;11.42;44.30
56176;BME280;63065;51.082;17.016;2023-04-10T05:10:57;101270.48;;;11.51;44.24
56176;BME280;63065;51.082;17.016;2023-04-10T05:13:22;101271.78;;;11.55;44.41
56176;BME280;63065;51.082;17.016;2023-04-10T05:15:48;101277.44;;;11.68;44.23
56176;BME280;63065;51.082;17.016;2023-04-10T05:18:13;101286.25;;;11.98;44.11
56176;BME280;63065;51.082;17.016;2023-04-10T05:20:38;101292.67;;;11.50;44.38
56176;BME280;63065;51.082;17.016;2023-04-10T05:23:03;101298.07;;;11.61;44.44
56176;BME280;63065;51.082;17.016;2023-04-10T05:25:29;101302.46;;;11.69;44.58
56176;BME280;63065;51.082;17.016;2023-04-10T05:27:55;101307.39;;;11.80;44.44
56176;BME280;63065;51.082;17.016;2023-04-10T05:30:20;101313.68;;;11.91;44.38
56176;BME280;63065;51.082;17.016;2023-04-10T05:32:45;101318.27;;;12.08;44.30
56176;BME280;63065;51.082;17.016;2023-04-10T05:35:10;101317.78;;;12.22;44.14
56176;BME280;63065;51.082;17.016;2023-04-10T05:37:36;101319.32;;;11.77;44.32
56176;BME280;63065;51.082;17.016;2023-04-10T05:40:01;101319.25;;;12.33;43.98
56176;BME280;63065;51.082;17.016;2023-04-10T05:42:27;101322.61;;;12.03;44.30
56176;BME280;63065;51.082;17.016;2023-04-10T05:44:52;101332.54;;;12.12;44.37
56176;BME280;63065;51.082;17.016;2023-04-10T05:47:18;101339.73;;;12.22;44.42
56176;BME280;63065;51.082;17.016;2023-04-10T05:49:43;101337.78;;;12.31;44.09
56176;BME280;63065;51.082;17.016;2023-04-10T05:52:08;101337.87;;;12.15;44.50
56176;BME280;63065;51.082;17.016;2023-04-10T05:54:34;101335.72;;;12.08;44.57
56176;BME280;63065;51.082;17.016;2023-04-10T05:56:59;101332.94;;;12.19;44.74
56176;BME280;63065;51.082;17.016;2023-04-10T05:59:24;101327.96;;;12.14;44.91
56176;BME280;63065;51.082;17.016;2023-04-10T06:01:49;101323.46;;;12.18;44.94
56176;BME280;63065;51.082;17.016;2023-04-10T06:04:15;101324.31;;;12.36;44.68
56176;BME280;63065;51.082;17.016;2023-04-10T06:06:41;101321.10;;;12.41;44.45
56176;BME280;63065;51.082;17.016;2023-04-10T06:09:06;101322.56;;;12.49;44.84
56176;BME280;63065;51.082;17.016;2023-04-10T06:11:31;101318.54;;;12.63;44.71
56176;BME280;63065;51.082;17.016;2023-04-10T06:13:56;101321.42;;;12.13;44.90
56176;BME280;63065;51.082;17.016;2023-04-10T06:16:22;101323.53;;;12.20;45.36
56176;BME280;63065;51.082;17.016;2023-04-10T06:18:48;101323.62;;;12.40;45.51
56176;BME280;63065;51.082;17.016;2023-04-10T06:21:13;101323.31;;;12.30;45.78
56176;BME280;63065;51.082;17.016;2023-04-10T06:23:38;101319.53;;;12.36;44.96
56176;BME280;63065;51.082;17.016;2023-04-10T06:26:04;101314.16;;;12.55;45.17
56176;BME280;63065;51.082;17.016;2023-04-10T06:28:29;101310.43;;;12.32;45.68
56176;BME280;63065;51.082;17.016;2023-04-10T06:30:54;101307.30;;;12.28;46.50
56176;BME280;63065;51.082;17.016;2023-04-10T06:33:19;101307.76;;;12.10;46.91
56176;BME280;63065;51.082;17.016;2023-04-10T06:35:44;101310.67;;;11.98;46.38
56176;BME280;63065;51.082;17.016;2023-04-10T06:38:10;101310.89;;;12.74;45.57
56176;BME280;63065;51.082;17.016;2023-04-10T06:40:35;101315.38;;;12.84;45.48
56176;BME280;63065;51.082;17.016;2023-04-10T06:43:01;101314.91;;;12.85;44.73
56176;BME280;63065;51.082;17.016;2023-04-10T06:45:27;101316.19;;;12.89;45.08
56176;BME280;63065;51.082;17.016;2023-04-10T06:47:52;101322.53;;;13.05;45.18
56176;BME280;63065;51.082;17.016;2023-04-10T06:50:17;101326.17;;;13.17;44.68
56176;BME280;63065;51.082;17.016;2023-04-10T06:52:43;101327.14;;;13.30;44.90
56176;BME280;63065;51.082;17.016;2023-04-10T06:55:08;101332.66;;;13.41;44.86
56176;BME280;63065;51.082;17.016;2023-04-10T06:57:34;101337.53;;;13.27;44.51
56176;BME280;63065;51.082;17.016;2023-04-10T06:59:59;101343.35;;;13.39;44.33
56176;BME280;63065;51.082;17.016;2023-04-10T07:02:25;101345.66;;;13.60;44.08
56176;BME280;63065;51.082;17.016;2023-04-10T07:04:50;101348.43;;;13.96;44.05
56176;BME280;63065;51.082;17.016;2023-04-10T07:07:16;101348.72;;;13.43;44.15
56176;BME280;63065;51.082;17.016;2023-04-10T07:09:41;101351.47;;;13.59;44.40
56176;BME280;63065;51.082;17.016;2023-04-10T07:12:07;101348.03;;;13.19;44.82
56176;BME280;63065;51.082;17.016;2023-04-10T07:14:33;101344.83;;;13.04;45.39
56176;BME280;63065;51.082;17.016;2023-04-10T07:16:57;101344.93;;;13.23;45.61
56176;BME280;63065;51.082;17.016;2023-04-10T07:19:22;101343.33;;;13.12;45.18
56176;BME280;63065;51.082;17.016;2023-04-10T07:21:48;101345.97;;;13.71;44.44
56176;BME280;63065;51.082;17.016;2023-04-10T07:24:13;101345.31;;;13.88;44.55
56176;BME280;63065;51.082;17.016;2023-04-10T07:26:39;101345.16;;;14.00;44.20
56176;BME280;63065;51.082;17.016;2023-04-10T07:29:04;101345.52;;;14.00;44.15
56176;BME280;63065;51.082;17.016;2023-04-10T07:31:29;101345.64;;;14.04;43.98
56176;BME280;63065;51.082;17.016;2023-04-10T07:33:54;101346.30;;;13.88;43.81
56176;BME280;63065;51.082;17.016;2023-04-10T07:36:19;101348.23;;;14.00;44.17
56176;BME280;63065;51.082;17.016;2023-04-10T07:38:44;101344.34;;;14.06;43.98
56176;BME280;63065;51.082;17.016;2023-04-10T07:41:10;101342.19;;;13.96;43.99
56176;BME280;63065;51.082;17.016;2023-04-10T07:43:36;101342.69;;;14.16;43.84
56176;BME280;63065;51.082;17.016;2023-04-10T07:46:01;101341.36;;;14.15;43.92
56176;BME280;63065;51.082;17.016;2023-04-10T07:48:26;101336.39;;;14.61;44.00
56176;BME280;63065;51.082;17.016;2023-04-10T07:50:52;101331.98;;;14.38;43.06
56176;BME280;63065;51.082;17.016;2023-04-10T07:53:17;101335.03;;;14.04;43.62
56176;BME280;63065;51.082;17.016;2023-04-10T07:55:44;101336.97;;;14.28;43.82
56176;BME280;63065;51.082;17.016;2023-04-10T07:58:08;101337.91;;;14.63;43.71
56176;BME280;63065;51.082;17.016;2023-04-10T08:00:34;101342.11;;;14.64;43.81
56176;BME280;63065;51.082;17.016;2023-04-10T08:02:59;101344.17;;;14.51;42.75
56176;BME280;63065;51.082;17.016;2023-04-10T08:05:25;101342.67;;;14.81;43.44
56176;BME280;63065;51.082;17.016;2023-04-10T08:07:50;101341.46;;;14.82;43.23
56176;BME280;63065;51.082;17.016;2023-04-10T08:10:16;101336.88;;;15.07;42.70
56176;BME280;63065;51.082;17.016;2023-04-10T08:12:42;101333.62;;;15.02;41.96
56176;BME280;63065;51.082;17.016;2023-04-10T08:15:07;101337.24;;;14.61;42.61
56176;BME280;63065;51.082;17.016;2023-04-10T08:17:32;101332.27;;;14.80;43.03
56176;BME280;63065;51.082;17.016;2023-04-10T08:19:58;101326.62;;;15.35;43.51
56176;BME280;63065;51.082;17.016;2023-04-10T08:22:24;101327.61;;;14.57;43.96
56176;BME280;63065;51.082;17.016;2023-04-10T08:24:49;101328.76;;;14.45;44.02
56176;BME280;63065;51.082;17.016;2023-04-10T08:27:14;101326.96;;;15.30;43.21
56176;BME280;63065;51.082;17.016;2023-04-10T08:29:40;101330.79;;;14.93;42.65
56176;BME280;63065;51.082;17.016;2023-04-10T08:32:05;101327.88;;;14.81;43.87
56176;BME280;63065;51.082;17.016;2023-04-10T08:34:30;101325.43;;;14.67;43.25
56176;BME280;63065;51.082;17.016;2023-04-10T08:36:56;101331.53;;;14.45;43.40
56176;BME280;63065;51.082;17.016;2023-04-10T08:39:21;101332.55;;;14.81;43.23
56176;BME280;63065;51.082;17.016;2023-04-10T08:41:47;101333.43;;;14.59;42.77
56176;BME280;63065;51.082;17.016;2023-04-10T08:44:12;101330.33;;;14.48;43.90
56176;BME280;63065;51.082;17.016;2023-04-10T08:46:41;101329.23;;;15.27;43.53
56176;BME280;63065;51.082;17.016;2023-04-10T08:49:03;101326.00;;;14.96;42.78
56176;BME280;63065;51.082;17.016;2023-04-10T08:51:35;101326.40;;;14.17;44.44
56176;BME280;63065;51.082;17.016;2023-04-10T08:53:59;101322.85;;;14.61;44.41
56176;BME280;63065;51.082;17.016;2023-04-10T08:56:19;101321.85;;;14.99;43.71
56176;BME280;63065;51.082;17.016;2023-04-10T08:58:46;101317.77;;;14.38;43.36
56176;BME280;63065;51.082;17.016;2023-04-10T09:01:10;101319.56;;;14.10;43.87
56176;BME280;63065;51.082;17.016;2023-04-10T09:03:35;101319.27;;;14.32;44.32
56176;BME280;63065;51.082;17.016;2023-04-10T09:06:02;101316.21;;;14.95;43.12
56176;BME280;63065;51.082;17.016;2023-04-10T09:08:27;101313.04;;;14.29;43.30
56176;BME280;63065;51.082;17.016;2023-04-10T09:10:52;101314.87;;;14.45;43.46
56176;BME280;63065;51.082;17.016;2023-04-10T09:18:08;101310.56;;;15.38;42.99
56176;BME280;63065;51.082;17.016;2023-04-10T09:20:33;101310.00;;;15.69;42.47
56176;BME280;63065;51.082;17.016;2023-04-10T09:22:59;101305.33;;;15.80;41.77
56176;BME280;63065;51.082;17.016;2023-04-10T09:25:29;101304.02;;;16.07;39.30
56176;BME280;63065;51.082;17.016;2023-04-10T09:27:58;101298.83;;;16.24;39.74
56176;BME280;63065;51.082;17.016;2023-04-10T09:30:31;101297.48;;;16.14;41.21
56176;BME280;63065;51.082;17.016;2023-04-10T09:32:42;101295.44;;;15.83;40.96
56176;BME280;63065;51.082;17.016;2023-04-10T09:35:06;101288.39;;;16.23;40.60
56176;BME280;63065;51.082;17.016;2023-04-10T09:37:32;101288.57;;;16.28;41.15
56176;BME280;63065;51.082;17.016;2023-04-10T09:39:57;101284.65;;;16.54;39.36
56176;BME280;63065;51.082;17.016;2023-04-10T09:42:29;101280.95;;;15.72;41.45
56176;BME280;63065;51.082;17.016;2023-04-10T09:44:53;101276.32;;;15.80;41.85
56176;BME280;63065;51.082;17.016;2023-04-10T09:47:16;101269.39;;;16.29;41.72
56176;BME280;63065;51.082;17.016;2023-04-10T09:49:44;101265.79;;;16.71;41.89
56176;BME280;63065;51.082;17.016;2023-04-10T09:52:17;101256.73;;;16.93;41.13
56176;BME280;63065;51.082;17.016;2023-04-10T09:54:35;101250.06;;;17.19;41.22
56176;BME280;63065;51.082;17.016;2023-04-10T09:56:56;101250.22;;;17.33;40.69
56176;BME280;63065;51.082;17.016;2023-04-10T09:59:22;101248.99;;;17.38;40.16
56176;BME280;63065;51.082;17.016;2023-04-10T10:01:47;101243.17;;;17.27;40.41
56176;BME280;63065;51.082;17.016;2023-04-10T10:04:13;101239.86;;;17.34;39.96
56176;BME280;63065;51.082;17.016;2023-04-10T10:06:38;101233.91;;;17.70;40.49
56176;BME280;63065;51.082;17.016;2023-04-10T10:09:04;101237.86;;;17.61;40.25
56176;BME280;63065;51.082;17.016;2023-04-10T10:11:31;101238.93;;;17.88;39.74
56176;BME280;63065;51.082;17.016;2023-04-10T10:13:54;101237.87;;;17.26;39.53
56176;BME280;63065;51.082;17.016;2023-04-10T10:16:20;101235.33;;;17.66;39.66
56176;BME280;63065;51.082;17.016;2023-04-10T10:18:51;101231.57;;;18.37;39.72
56176;BME280;63065;51.082;17.016;2023-04-10T10:21:12;101230.62;;;18.47;38.48
56176;BME280;63065;51.082;17.016;2023-04-10T10:23:36;101224.59;;;18.57;36.73
56176;BME280;63065;51.082;17.016;2023-04-10T10:26:04;101227.08;;;18.71;38.34
56176;BME280;63065;51.082;17.016;2023-04-10T10:28:28;101225.18;;;18.47;38.34
56176;BME280;63065;51.082;17.016;2023-04-10T10:30:52;101221.26;;;18.18;37.55
56176;BME280;63065;51.082;17.016;2023-04-10T10:33:17;101220.50;;;18.25;38.48
56176;BME280;63065;51.082;17.016;2023-04-10T10:35:43;101217.70;;;17.74;37.32
56176;BME280;63065;51.082;17.016;2023-04-10T10:38:08;101216.69;;;18.00;38.82
56176;BME280;63065;51.082;17.016;2023-04-10T10:40:40;101212.22;;;17.68;39.17
56176;BME280;63065;51.082;17.016;2023-04-10T10:43:06;101209.22;;;17.73;39.17
56176;BME280;63065;51.082;17.016;2023-04-10T10:45:30;101206.91;;;17.97;38.75
56176;BME280;63065;51.082;17.016;2023-04-10T10:47:53;101202.46;;;17.63;38.97
56176;BME280;63065;51.082;17.016;2023-04-10T10:50:15;101199.01;;;17.52;39.19
56176;BME280;63065;51.082;17.016;2023-04-10T10:52:44;101196.43;;;17.68;37.59
56176;BME280;63065;51.082;17.016;2023-04-10T10:59:57;101191.40;;;17.72;38.05
56176;BME280;63065;51.082;17.016;2023-04-10T11:02:22;101185.81;;;17.74;38.49
56176;BME280;63065;51.082;17.016;2023-04-10T11:04:47;101184.03;;;17.84;37.74
56176;BME280;63065;51.082;17.016;2023-04-10T11:07:14;101179.98;;;17.52;39.70
56176;BME280;63065;51.082;17.016;2023-04-10T11:09:43;101176.81;;;17.12;39.06
56176;BME280;63065;51.082;17.016;2023-04-10T11:12:04;101174.28;;;17.52;38.66
56176;BME280;63065;51.082;17.016;2023-04-10T11:14:30;101174.11;;;17.71;37.57
56176;BME280;63065;51.082;17.016;2023-04-10T11:16:54;101172.26;;;17.95;36.28
56176;BME280;63065;51.082;17.016;2023-04-10T11:19:20;101169.24;;;18.40;37.28
56176;BME280;63065;51.082;17.016;2023-04-10T11:24:11;101159.53;;;19.34;36.81
56176;BME280;63065;51.082;17.016;2023-04-10T11:26:39;101158.15;;;20.01;34.59
56176;BME280;63065;51.082;17.016;2023-04-10T11:29:02;101154.63;;;19.70;32.23
56176;BME280;63065;51.082;17.016;2023-04-10T11:31:27;101152.71;;;19.80;35.71
56176;BME280;63065;51.082;17.016;2023-04-10T11:34:01;101147.90;;;19.50;34.92
56176;BME280;63065;51.082;17.016;2023-04-10T11:36:18;101146.98;;;19.76;35.34
56176;BME280;63065;51.082;17.016;2023-04-10T11:41:08;101140.71;;;19.82;33.67
56176;BME280;63065;51.082;17.016;2023-04-10T11:43:34;101136.86;;;19.74;34.47
56176;BME280;63065;51.082;17.016;2023-04-10T11:46:01;101137.95;;;20.16;33.91
56176;BME280;63065;51.082;17.016;2023-04-10T11:48:26;101135.87;;;19.58;34.00
56176;BME280;63065;51.082;17.016;2023-04-10T11:50:50;101138.26;;;20.05;34.65
56176;BME280;63065;51.082;17.016;2023-04-10T11:53:18;101138.36;;;19.70;34.79
56176;BME280;63065;51.082;17.016;2023-04-10T11:55:42;101134.70;;;19.29;34.25
56176;BME280;63065;51.082;17.016;2023-04-10T12:00:32;101128.97;;;19.16;35.37
56176;BME280;63065;51.082;17.016;2023-04-10T12:02:57;101125.05;;;19.57;34.65
56176;BME280;63065;51.082;17.016;2023-04-10T12:05:23;101128.25;;;19.40;34.29
56176;BME280;63065;51.082;17.016;2023-04-10T12:07:49;101125.54;;;19.70;34.83
56176;BME280;63065;51.082;17.016;2023-04-10T12:10:14;101125.07;;;19.70;34.28
56176;BME280;63065;51.082;17.016;2023-04-10T12:12:39;101122.50;;;19.37;34.20
56176;BME280;63065;51.082;17.016;2023-04-10T12:17:30;101117.34;;;19.28;34.77
56176;BME280;63065;51.082;17.016;2023-04-10T12:19:56;101116.49;;;19.56;35.16
56176;BME280;63065;51.082;17.016;2023-04-10T12:22:21;101111.62;;;19.34;34.80
56176;BME280;63065;51.082;17.016;2023-04-10T12:24:47;101109.64;;;19.20;34.33
56176;BME280;63065;51.082;17.016;2023-04-10T12:27:16;101112.31;;;19.08;35.61
56176;BME280;63065;51.082;17.016;2023-04-10T12:29:37;101107.37;;;19.32;35.03
56176;BME280;63065;51.082;17.016;2023-04-10T12:32:07;101109.85;;;19.28;35.52
56176;BME280;63065;51.082;17.016;2023-04-10T12:34:28;101106.10;;;19.33;35.40
56176;BME280;63065;51.082;17.016;2023-04-10T12:36:53;101102.08;;;19.24;35.27
56176;BME280;63065;51.082;17.016;2023-04-10T12:39:22;101104.18;;;19.51;34.80
56176;BME280;63065;51.082;17.016;2023-04-10T12:41:44;101105.28;;;19.45;34.39
56176;BME280;63065;51.082;17.016;2023-04-10T12:44:11;101100.61;;;19.78;34.57
56176;BME280;63065;51.082;17.016;2023-04-10T12:46:36;101098.46;;;19.98;34.23
56176;BME280;63065;51.082;17.016;2023-04-10T12:49:09;101096.97;;;19.11;33.90
56176;BME280;63065;51.082;17.016;2023-04-10T12:53:51;101090.74;;;19.13;33.51